Главная страница
METAR-TAF:

METAR-TAF

Аэропорты :

Сен-Дени, Реюньон

широта: 20-53S, долгота: 055-31E, высота над уровнем моря: 21 м

Текущие метеонаблюдения

Эта сводка был подготовлена 11 минут назад, в 06:00 UTC
Ветер 16 Узел от восточный
Температура 27°C
Влажность 51%
Давление 1022 hPa
Видимость 10 км и более

METAR: FMEE 230600Z AUTO 09016KT 9999 FEW037/// BKN050/// 27/16 Q1022 TEMPO 09015G25KT

Время: 10:11 (06:11 UTC)

Прогноз

Эта сводка был подготовлена 1 час и 11 минут назад, в 05:00 UTC
Прогноз действительный с 23-го 06 UTC до 24-го 12 UTC
Ветер 10 Узел от восточный
Видимость 10 км и более
небольшая облачность на высоте 2300 фута
Вероятность 40% :
временами
С 23-го 06 UTC до 23-го 14 UTC
Ветер 15 Узел от восточный с порывами до 25 Узел

TAF: FMEE 230500Z 2306/2412 09010KT 9999 FEW023 PROB40 TEMPO 2306/2314 09015G25KT

Метеонаблюдения и прогнозы для более 4000 аэропортов (сводки METAR и TAF).

Имеющиеся станции представлены на карте желтыми и красными точками.

Чтобы увидеть название станции, наведите на нее мышь.

Затем щелкните, чтобы увидеть метеонаблюдения и метеопрогнозы.

Управление картой: чтобы увеличить масштаб, щелкните зеленые кнопки с черным крестиком; чтобы уменьшить масштаб, щелкните зеленую кнопку с тире; для просмотра соседних карт щелкайте зеленые стрелки.


METAR-TAF: